Time;durP1;ratioP1;P1;durP2;ratioP2;P2;SDS_P1;SDS_P2;PMS_P1;PMS_P2;Temp;Humidity;BMP_temperature;BMP_pressure;BME280_temperature;BME280_humidity;BME280_pressure;Samples;Min_cycle;Max_cycle;Signal;HPM_P1;HPM_P2
2022/06/26 00:02:04;;;;;;;5.15;3.55;;;;;;;21.18;56.84;99774.38;1719935;82;21608;-62
2022/06/26 00:04:31;;;;;;;3.73;3.07;;;;;;;21.17;56.74;99776.70;1716893;82;21464;-63
2022/06/26 00:07:00;;;;;;;3.22;3.02;;;;;;;21.14;56.78;99778.79;1714874;80;21072;-63
2022/06/26 00:09:28;;;;;;;3.08;2.77;;;;;;;21.12;56.64;99784.76;1719285;80;21849;-62
2022/06/26 00:11:56;;;;;;;3.75;3.00;;;;;;;21.07;56.59;99791.81;1718194;81;21591;-62
2022/06/26 00:14:23;;;;;;;5.87;3.00;;;;;;;21.03;56.63;99796.22;1721212;82;21557;-62
2022/06/26 00:16:50;;;;;;;2.97;2.77;;;;;;;21.00;56.96;99794.17;1719873;80;22000;-63
2022/06/26 00:19:16;;;;;;;4.20;3.08;;;;;;;21.08;56.88;99793.98;1719662;80;21574;-63
2022/06/26 00:21:43;;;;;;;4.00;3.35;;;;;;;21.07;57.09;99792.31;1716280;82;21734;-62
2022/06/26 00:24:10;;;;;;;4.20;3.00;;;;;;;21.05;56.95;99796.94;1724962;80;21514;-63
2022/06/26 00:26:37;;;;;;;3.30;3.00;;;;;;;20.97;56.77;99794.41;1747404;80;21024;-62
2022/06/26 00:29:03;;;;;;;3.00;2.80;;;;;;;20.95;56.63;99791.52;1740093;80;21484;-63
2022/06/26 00:31:30;;;;;;;3.50;3.10;;;;;;;20.92;56.59;99789.09;1737701;80;20939;-63
2022/06/26 00:33:56;;;;;;;4.92;2.85;;;;;;;20.88;56.70;99793.84;1736622;80;22207;-63
2022/06/26 00:36:23;;;;;;;7.00;3.35;;;;;;;20.84;56.76;99795.58;1743561;80;21111;-63
2022/06/26 00:38:49;;;;;;;4.55;2.95;;;;;;;20.81;56.88;99803.34;1733723;80;21441;-63
2022/06/26 00:41:17;;;;;;;3.62;3.25;;;;;;;20.77;57.35;99799.23;1735186;81;21473;-63
2022/06/26 00:43:45;;;;;;;3.75;3.15;;;;;;;20.81;57.84;99807.35;1746916;80;21600;-63
2022/06/26 00:46:11;;;;;;;3.27;2.95;;;;;;;20.83;57.96;99808.07;1740514;80;21500;-63
2022/06/26 00:48:38;;;;;;;4.78;3.45;;;;;;;20.82;57.89;99809.56;1729250;80;21528;-63
2022/06/26 00:51:05;;;;;;;9.18;3.47;;;;;;;20.79;58.06;99809.30;1742115;80;21539;-64
2022/06/26 00:53:34;;;;;;;4.78;3.58;;;;;;;20.74;58.06;99809.70;1746446;80;21600;-63
2022/06/26 00:56:00;;;;;;;3.25;3.05;;;;;;;20.70;58.18;99811.40;1744113;80;21504;-63
2022/06/26 00:58:27;;;;;;;4.58;3.83;;;;;;;20.65;58.12;99809.62;1750495;80;22109;-64
2022/06/26 01:00:55;;;;;;;6.17;3.70;;;;;;;20.58;58.15;99810.56;1734262;80;22576;-64
2022/06/26 01:03:21;;;;;;;4.80;3.37;;;;;;;20.55;58.59;99804.99;1747535;81;21386;-63
2022/06/26 01:05:48;;;;;;;5.30;3.45;;;;;;;20.59;58.94;99807.77;1736984;80;21508;-64
2022/06/26 01:08:15;;;;;;;7.78;4.15;;;;;;;20.59;59.10;99807.77;1747450;80;21544;-63
2022/06/26 01:10:45;;;;;;;4.95;4.08;;;;;;;20.56;59.23;99807.17;1741238;80;21382;-63
2022/06/26 01:13:13;;;;;;;6.00;4.78;;;;;;;20.53;59.43;99808.28;1742197;80;21489;-63
2022/06/26 01:15:40;;;;;;;7.87;5.10;;;;;;;20.50;59.43;99813.02;1737042;80;21438;-62
2022/06/26 01:18:07;;;;;;;8.08;4.87;;;;;;;20.46;59.69;99810.25;1745004;80;20988;-63
2022/06/26 01:20:34;;;;;;;8.77;4.43;;;;;;;20.40;59.82;99812.43;1731992;80;21453;-62
2022/06/26 01:23:05;;;;;;;6.17;4.33;;;;;;;20.38;59.97;99813.51;1749396;80;22072;-62
2022/06/26 01:25:45;;;;;;;5.85;5.25;;;;;;;20.39;60.12;99817.89;1748589;80;21465;-62
2022/06/26 01:28:13;;;;;;;7.83;4.75;;;;;;;20.42;60.21;99817.66;1741788;80;21531;-62
2022/06/26 01:30:41;;;;;;;8.58;4.92;;;;;;;20.40;60.14;99819.60;1740800;80;21461;-62
2022/06/26 01:33:08;;;;;;;10.68;5.08;;;;;;;20.37;60.13;99819.84;1752204;80;21514;-62
2022/06/26 01:35:35;;;;;;;8.28;5.05;;;;;;;20.34;60.17;99826.75;1725667;81;21473;-62
2022/06/26 01:38:14;;;;;;;9.48;5.17;;;;;;;20.29;60.10;99823.13;1748053;80;21147;-63
2022/06/26 01:40:41;;;;;;;7.80;4.85;;;;;;;20.22;60.26;99822.77;1739816;81;21432;-63
2022/06/26 01:43:14;;;;;;;6.37;4.95;;;;;;;20.22;60.65;99821.92;1744810;81;21519;-63
2022/06/26 01:45:49;;;;;;;7.62;4.80;;;;;;;20.23;60.86;99830.31;1745014;81;21467;-63
2022/06/26 01:48:17;;;;;;;5.78;4.78;;;;;;;20.25;61.16;99836.38;1742212;81;21615;-63
2022/06/26 01:53:45;;;;;;;12.25;5.70;;;;;;;19.69;64.45;99850.50;1793651;78;23107;-61
2022/06/26 01:56:13;;;;;;;5.42;4.85;;;;;;;20.16;61.84;99845.95;1773920;80;21542;-61
2022/06/26 01:58:48;;;;;;;8.13;5.03;;;;;;;20.17;61.71;99845.45;1759766;80;21819;-62
2022/06/26 02:01:19;;;;;;;8.08;5.15;;;;;;;20.10;61.79;99846.45;1764132;80;21494;-62
2022/06/26 02:03:47;;;;;;;5.75;4.97;;;;;;;20.14;62.24;99848.39;1729434;81;21602;-62
2022/06/26 02:06:14;;;;;;;6.92;4.60;;;;;;;20.14;62.24;99848.39;1755744;79;21450;-62
2022/06/26 02:08:42;;;;;;;5.42;4.90;;;;;;;20.19;62.54;99847.05;1763078;80;20914;-62
2022/06/26 02:13:55;;;;;;;5.00;4.40;;;;;;;20.22;62.37;99855.29;1769241;80;21419;-63
2022/06/26 02:16:27;;;;;;;7.08;4.87;;;;;;;20.20;62.46;99848.73;1771702;80;21539;-63
2022/06/26 02:18:56;;;;;;;10.18;5.42;;;;;;;20.18;62.42;99854.69;1770907;80;21454;-63
2022/06/26 02:21:31;;;;;;;6.95;4.55;;;;;;;20.18;62.59;99857.35;1769872;80;21459;-63
2022/06/26 02:24:01;;;;;;;10.90;5.10;;;;;;;20.25;62.74;99864.86;1760492;80;21788;-63
2022/06/26 02:26:29;;;;;;;5.25;4.75;;;;;;;20.28;62.90;99862.80;1764488;80;21547;-62
2022/06/26 02:28:57;;;;;;;5.62;5.12;;;;;;;20.33;62.84;99867.79;1771036;80;21069;-63
2022/06/26 02:31:23;;;;;;;6.60;4.75;;;;;;;20.30;62.86;99865.35;1766283;80;21420;-63
2022/06/26 02:33:51;;;;;;;5.30;4.80;;;;;;;20.28;62.83;99860.62;1767674;80;21573;-63
2022/06/26 02:36:18;;;;;;;4.90;4.33;;;;;;;20.29;62.78;99862.34;1709187;82;22180;-63
2022/06/26 02:38:44;;;;;;;7.30;5.00;;;;;;;20.32;62.81;99863.41;1720281;81;21413;-64
2022/06/26 02:41:11;;;;;;;8.15;5.25;;;;;;;20.37;62.86;99863.41;1733699;81;21482;-63
2022/06/26 02:43:38;;;;;;;5.20;4.70;;;;;;;20.40;63.01;99875.68;1704042;83;21693;-63
2022/06/26 02:46:06;;;;;;;7.20;5.08;;;;;;;20.41;63.10;99869.34;1697396;83;21656;-63
2022/06/26 02:48:33;;;;;;;5.47;4.87;;;;;;;20.49;62.90;99872.73;1713081;83;21995;-63
2022/06/26 02:51:01;;;;;;;;;;;;;;;20.49;62.90;99872.73;1706448;83;21427;-63
2022/06/26 02:53:27;;;;;;;5.45;4.92;;;;;;;20.51;63.20;99878.80;1692533;83;20186;-62
2022/06/26 02:55:54;;;;;;;8.03;4.60;;;;;;;20.51;62.75;99877.47;1726293;82;21471;-63
2022/06/26 02:58:22;;;;;;;4.92;4.40;;;;;;;20.56;62.94;99877.95;1751086;80;21061;-63
2022/06/26 03:00:53;;;;;;;5.10;4.62;;;;;;;20.65;62.89;99880.41;1758594;80;21801;-63
2022/06/26 03:03:20;;;;;;;6.10;5.50;;;;;;;20.73;63.06;99879.28;1753688;80;21554;-63
2022/06/26 03:05:47;;;;;;;8.63;5.07;;;;;;;20.78;63.00;99885.11;1755749;80;21546;-63
2022/06/26 03:08:13;;;;;;;5.75;5.15;;;;;;;20.81;63.15;99886.17;1750726;80;22145;-63
2022/06/26 03:10:40;;;;;;;5.75;5.10;;;;;;;20.86;62.96;99894.67;1746541;80;21427;-63
2022/06/26 03:13:07;;;;;;;4.85;4.55;;;;;;;20.89;62.73;99891.77;1751293;80;21533;-63
2022/06/26 03:15:35;;;;;;;6.00;5.22;;;;;;;20.93;62.75;99890.53;1762002;80;21050;-63
2022/06/26 03:18:02;;;;;;;5.45;4.80;;;;;;;21.01;62.88;99891.23;1748872;80;21416;-63
2022/06/26 03:20:29;;;;;;;5.62;4.67;;;;;;;21.09;62.76;99893.27;1753738;80;21562;-63
2022/06/26 03:22:56;;;;;;;5.53;5.03;;;;;;;21.11;62.71;99888.64;1758498;80;21903;-63
2022/06/26 03:25:23;;;;;;;6.85;5.17;;;;;;;21.14;62.82;99895.08;1756154;80;21874;-63
2022/06/26 03:27:50;;;;;;;6.10;5.35;;;;;;;21.17;62.75;99896.14;1752074;80;21423;-63
2022/06/26 03:30:19;;;;;;;5.75;5.15;;;;;;;21.20;62.83;99895.41;1748879;80;21494;-63
2022/06/26 03:32:47;;;;;;;5.55;4.90;;;;;;;21.26;62.83;99893.20;1758580;80;20966;-63
2022/06/26 03:35:14;;;;;;;9.85;5.45;;;;;;;21.30;62.57;99895.48;1753517;80;21486;-64
2022/06/26 03:37:41;;;;;;;6.80;5.23;;;;;;;21.38;62.33;99896.20;1744757;80;21825;-63
2022/06/26 03:40:09;;;;;;;6.20;5.00;;;;;;;21.47;61.92;99897.27;1748276;80;21558;-63
2022/06/26 03:42:37;;;;;;;6.53;5.30;;;;;;;21.58;61.67;99894.53;1765687;80;21021;-63
2022/06/26 03:45:06;;;;;;;5.83;5.33;;;;;;;21.67;61.33;99903.61;1748590;80;21459;-63
2022/06/26 03:47:34;;;;;;;5.95;5.15;;;;;;;21.73;61.10;99898.57;1748926;80;21577;-63
2022/06/26 03:50:02;;;;;;;7.40;4.75;;;;;;;21.83;60.90;99893.77;1742983;80;21921;-63
2022/06/26 03:52:30;;;;;;;4.87;4.47;;;;;;;21.92;60.72;99892.48;1751864;80;20938;-63
2022/06/26 03:54:59;;;;;;;4.70;4.30;;;;;;;22.03;60.81;99894.23;1750125;80;21554;-63
2022/06/26 03:57:25;;;;;;;7.78;4.75;;;;;;;22.15;60.81;99893.66;1757741;80;21506;-63
2022/06/26 03:59:54;;;;;;;5.37;4.80;;;;;;;22.28;60.38;99898.81;1766584;80;21435;-64
2022/06/26 04:02:26;;;;;;;5.15;4.60;;;;;;;22.39;60.02;99900.06;1749892;80;22003;-63
2022/06/26 04:04:52;;;;;;;5.17;4.42;;;;;;;22.52;59.39;99901.16;1760048;80;21415;-64
2022/06/26 04:07:20;;;;;;;5.03;4.60;;;;;;;22.65;58.91;99902.27;1763015;80;21447;-64
2022/06/26 04:09:50;;;;;;;7.72;4.28;;;;;;;22.76;58.47;99901.31;1758966;80;21442;-63
2022/06/26 04:12:22;;;;;;;4.62;4.30;;;;;;;22.86;58.26;99902.16;1744414;80;22631;-64
2022/06/26 04:14:48;;;;;;;6.03;4.00;;;;;;;22.95;58.01;99902.67;1747041;80;21912;-64
2022/06/26 04:17:17;;;;;;;5.12;4.03;;;;;;;23.05;57.77;99898.19;1751787;80;21526;-63
2022/06/26 04:19:45;;;;;;;4.60;4.20;;;;;;;23.21;57.30;99890.11;1749606;80;21527;-64
2022/06/26 04:22:11;;;;;;;4.65;4.20;;;;;;;23.34;57.31;99894.70;1760512;80;21511;-64
2022/06/26 04:24:39;;;;;;;4.45;4.15;;;;;;;23.46;57.08;99890.02;1761310;80;21573;-64
2022/06/26 04:27:07;;;;;;;4.87;3.65;;;;;;;23.56;56.90;99894.03;1760233;80;21781;-64
2022/06/26 04:29:33;;;;;;;6.95;3.17;;;;;;;23.61;56.46;99887.75;1759844;80;21097;-64
2022/06/26 04:32:01;;;;;;;3.80;3.50;;;;;;;23.67;55.78;99889.84;1760288;80;21447;-65
2022/06/26 04:34:29;;;;;;;3.67;3.42;;;;;;;23.78;55.69;99880.79;1751430;80;21498;-64
2022/06/26 04:36:56;;;;;;;4.78;3.80;;;;;;;23.85;55.19;99881.94;1752637;80;21484;-64
2022/06/26 04:39:25;;;;;;;6.67;4.00;;;;;;;23.87;55.18;99886.66;1752989;80;21900;-64
2022/06/26 04:41:52;;;;;;;5.45;3.65;;;;;;;23.89;55.23;99887.36;1750406;80;27353;-64
2022/06/26 04:44:18;;;;;;;7.53;3.95;;;;;;;23.89;55.15;99889.55;1758595;80;21527;-65
2022/06/26 04:46:46;;;;;;;5.50;4.30;;;;;;;23.90;55.07;99886.36;1767799;80;21586;-65
2022/06/26 04:49:13;;;;;;;6.37;4.42;;;;;;;23.93;54.96;99881.21;1760901;80;21499;-64
2022/06/26 04:51:41;;;;;;;6.92;3.83;;;;;;;23.95;54.92;99882.75;1757650;80;21806;-65
2022/06/26 04:54:25;;;;;;;4.55;4.10;;;;;;;23.98;54.98;99880.25;1758940;80;21412;-64
2022/06/26 04:56:52;;;;;;;4.20;3.80;;;;;;;23.98;54.98;99880.25;1749301;80;21451;-64
2022/06/26 04:59:18;;;;;;;6.72;4.22;;;;;;;24.01;55.16;99887.52;1740992;80;21574;-64
2022/06/26 05:01:45;;;;;;;5.30;3.80;;;;;;;24.11;55.26;99894.23;1751947;80;21483;-63
2022/06/26 05:04:13;;;;;;;5.78;4.35;;;;;;;24.17;55.05;99885.58;1752656;80;22216;-64
2022/06/26 05:06:47;;;;;;;6.20;3.98;;;;;;;24.21;54.80;99889.66;1750707;79;21427;-64
2022/06/26 05:09:17;;;;;;;7.08;4.30;;;;;;;24.25;54.69;99887.52;1743481;80;21097;-64
2022/06/26 05:11:44;;;;;;;5.97;3.83;;;;;;;24.31;54.47;99887.42;1743094;80;21003;-64
2022/06/26 05:14:13;;;;;;;5.22;4.22;;;;;;;24.35;54.33;99893.69;1757129;80;21424;-63
2022/06/26 05:16:57;;;;;;;4.17;3.80;;;;;;;24.41;54.19;99891.77;1719560;82;21761;-63
2022/06/26 05:19:28;;;;;;;4.03;3.65;;;;;;;24.54;54.03;99897.31;1713023;81;21437;-64
2022/06/26 05:21:56;;;;;;;4.87;3.87;;;;;;;24.54;54.03;99897.31;1753292;80;21438;-66
2022/06/26 05:24:22;;;;;;;5.05;3.62;;;;;;;24.60;54.12;99894.87;1753167;80;21622;-64
2022/06/26 05:26:49;;;;;;;6.28;4.10;;;;;;;24.71;53.82;99888.43;1751042;80;21594;-64
2022/06/26 05:29:16;;;;;;;6.58;3.80;;;;;;;24.76;53.75;99891.52;1759310;80;25143;-63
2022/06/26 05:31:43;;;;;;;6.08;4.10;;;;;;;24.94;53.54;99899.63;1748484;80;21670;-64
2022/06/26 05:34:10;;;;;;;5.12;3.22;;;;;;;24.94;53.54;99899.63;1741652;80;21555;-63
2022/06/26 05:36:39;;;;;;;4.20;3.80;;;;;;;25.01;52.86;99899.84;1757630;80;21050;-63
2022/06/26 05:39:06;;;;;;;4.15;3.30;;;;;;;25.04;52.83;99895.52;1754248;80;21408;-64
2022/06/26 05:41:33;;;;;;;3.87;3.47;;;;;;;25.12;52.68;99900.97;1741744;80;21723;-63
2022/06/26 05:44:00;;;;;;;4.60;3.50;;;;;;;25.20;52.21;99897.02;1757003;80;21018;-63
2022/06/26 05:46:27;;;;;;;;;;;;;;;25.31;52.02;99890.57;1750853;80;21432;-63
2022/06/26 05:48:56;;;;;;;3.10;2.90;;;;;;;25.44;52.01;99894.22;1755099;80;20429;-63
2022/06/26 05:51:33;;;;;;;;;;;;;;;25.49;51.71;99891.08;1751790;80;20931;-63
2022/06/26 05:54:07;;;;;;;3.50;3.20;;;;;;;25.59;50.62;99892.66;1750793;80;21869;-63
2022/06/26 05:56:53;;;;;;;6.85;3.20;;;;;;;25.59;50.62;99892.66;1740329;80;21443;-63
2022/06/26 05:59:27;;;;;;;3.62;3.27;;;;;;;25.66;50.50;99889.36;1700183;80;21555;-63
2022/06/26 06:02:07;;;;;;;7.62;2.92;;;;;;;25.75;50.34;99889.25;1710130;80;21483;-63
2022/06/26 06:04:35;;;;;;;2.80;2.70;;;;;;;25.85;50.01;99895.88;1749405;80;21420;-63
2022/06/26 06:07:03;;;;;;;3.90;3.08;;;;;;;25.97;49.19;99886.54;1742680;80;22186;-64
2022/06/26 06:09:32;;;;;;;3.98;3.08;;;;;;;26.09;48.71;99887.61;1753724;80;21507;-63
2022/06/26 06:11:59;;;;;;;5.25;3.00;;;;;;;26.19;48.92;99887.02;1743654;80;21092;-64
2022/06/26 06:14:25;;;;;;;4.87;3.17;;;;;;;26.30;48.79;99889.42;1754052;80;21693;-64
2022/06/26 06:16:52;;;;;;;5.72;3.42;;;;;;;26.41;48.75;99895.88;1754443;80;21527;-59
2022/06/26 06:19:20;;;;;;;3.67;3.25;;;;;;;26.49;48.39;99891.53;1753041;80;21824;-59
2022/06/26 06:21:46;;;;;;;6.90;3.00;;;;;;;26.55;47.95;99892.22;1752232;80;21573;-59
2022/06/26 06:24:13;;;;;;;3.52;3.20;;;;;;;26.55;47.95;99892.22;1752963;80;21507;-60
2022/06/26 06:26:39;;;;;;;5.65;3.20;;;;;;;26.68;48.18;99899.88;1756291;80;21550;-60
2022/06/26 06:29:08;;;;;;;3.12;2.83;;;;;;;26.75;47.94;99903.62;1750105;80;21543;-59
2022/06/26 06:31:34;;;;;;;6.27;3.30;;;;;;;26.88;47.58;99901.29;1741732;80;21992;-61
2022/06/26 06:34:01;;;;;;;3.40;3.20;;;;;;;26.96;46.87;99901.81;1755564;80;21723;-63
2022/06/26 06:36:29;;;;;;;3.40;3.10;;;;;;;26.97;46.67;99905.70;1748656;80;21522;-61
2022/06/26 06:38:57;;;;;;;3.45;3.02;;;;;;;26.97;45.95;99911.58;1723817;80;21507;-60
2022/06/26 06:41:23;;;;;;;3.58;3.27;;;;;;;26.99;46.17;99908.20;1751957;80;21457;-60
2022/06/26 06:44:02;;;;;;;3.67;3.33;;;;;;;27.05;45.74;99903.52;1759763;80;21802;-59
2022/06/26 06:46:32;;;;;;;3.35;2.80;;;;;;;27.10;45.46;99898.45;1747053;80;21542;-61
2022/06/26 06:49:00;;;;;;;3.95;3.17;;;;;;;27.15;45.59;99903.36;1749016;80;21585;-61
2022/06/26 06:51:28;;;;;;;4.22;3.27;;;;;;;27.24;45.39;99901.49;1754930;80;21687;-63
2022/06/26 06:53:55;;;;;;;4.15;3.05;;;;;;;27.33;45.33;99903.22;1739410;80;21440;-62
2022/06/26 06:56:22;;;;;;;4.37;3.10;;;;;;;27.41;45.36;99898.33;1752435;80;21811;-62
2022/06/26 06:58:49;;;;;;;4.55;3.22;;;;;;;27.46;45.23;99898.67;1753222;80;21470;-63
2022/06/26 07:01:15;;;;;;;4.67;3.13;;;;;;;27.53;44.82;99895.13;1744068;80;21420;-62
2022/06/26 07:03:42;;;;;;;4.40;2.70;;;;;;;27.68;44.38;99893.10;1752363;80;21840;-62
2022/06/26 07:06:09;;;;;;;5.10;2.83;;;;;;;27.79;43.06;99903.55;1746495;80;21549;-60
2022/06/26 07:08:35;;;;;;;3.77;2.98;;;;;;;27.87;42.35;99895.42;1754715;80;21910;-60
2022/06/26 07:11:02;;;;;;;3.08;2.80;;;;;;;27.95;41.90;99890.05;1761339;80;21545;-61
2022/06/26 07:13:30;;;;;;;4.05;2.87;;;;;;;28.05;41.88;99895.75;1742672;80;21589;-61
2022/06/26 07:15:56;;;;;;;2.87;2.52;;;;;;;28.05;42.16;99899.80;1753442;80;21428;-62
2022/06/26 07:18:25;;;;;;;3.80;2.87;;;;;;;28.06;42.10;99904.20;1754715;80;21477;-62
2022/06/26 07:20:53;;;;;;;3.75;2.67;;;;;;;28.08;41.63;99900.30;1750799;80;21483;-62
2022/06/26 07:23:20;;;;;;;6.07;2.97;;;;;;;28.08;41.52;99903.00;1746259;80;21002;-62
2022/06/26 07:25:50;;;;;;;3.12;2.83;;;;;;;28.15;41.92;99899.95;1757083;80;21544;-62
2022/06/26 07:28:17;;;;;;;3.90;2.90;;;;;;;28.28;41.70;99902.63;1745976;80;21581;-62
2022/06/26 07:30:44;;;;;;;2.98;2.55;;;;;;;28.49;42.41;99896.11;1755781;80;21554;-62
2022/06/26 07:35:56;;;;;;;5.55;2.37;;;;;;;28.94;40.36;99880.18;1749522;80;20949;-62
2022/06/26 07:38:24;;;;;;;2.77;2.45;;;;;;;29.10;39.31;99879.21;1747161;80;21578;-62
2022/06/26 07:40:52;;;;;;;5.12;2.12;;;;;;;29.23;38.78;99878.64;1750519;80;21503;-64
2022/06/26 07:43:21;;;;;;;7.10;2.12;;;;;;;29.34;38.53;99880.09;1748438;79;21033;-62
2022/06/26 07:45:51;;;;;;;4.45;2.30;;;;;;;29.35;38.23;99888.04;1750651;80;21813;-62
2022/06/26 07:48:18;;;;;;;2.92;2.62;;;;;;;29.39;38.56;99881.75;1751440;80;21466;-62
2022/06/26 07:50:46;;;;;;;2.40;2.20;;;;;;;29.47;38.44;99878.96;1747069;80;20986;-62
2022/06/26 07:53:13;;;;;;;;;;;;;;;29.44;37.50;99876.12;1742856;80;20998;-63
2022/06/26 07:55:40;;;;;;;5.47;2.35;;;;;;;29.35;36.98;99884.47;1759229;80;20451;-63
2022/06/26 07:58:07;;;;;;;4.78;2.75;;;;;;;29.20;37.80;99886.63;1755469;80;21931;-63
2022/06/26 08:00:34;;;;;;;2.98;2.45;;;;;;;29.11;38.49;99884.97;1762860;80;21095;-63
2022/06/26 08:03:08;;;;;;;4.83;2.27;;;;;;;29.12;39.11;99877.16;1757459;80;21530;-64
2022/06/26 08:05:36;;;;;;;7.10;2.55;;;;;;;29.09;38.84;99874.84;1762058;80;21633;-61
2022/06/26 08:08:04;;;;;;;4.50;2.27;;;;;;;29.13;38.72;99882.95;1759556;80;22021;-62
2022/06/26 08:10:32;;;;;;;4.62;1.98;;;;;;;29.23;38.88;99878.64;1735880;80;21761;-61
2022/06/26 08:12:58;;;;;;;2.30;2.10;;;;;;;29.33;38.15;99886.03;1770081;80;21601;-61
2022/06/26 08:15:25;;;;;;;3.52;1.77;;;;;;;29.49;37.59;99885.87;1754629;80;21575;-62
2022/06/26 08:17:52;;;;;;;3.87;1.95;;;;;;;29.72;36.76;99889.05;1761263;80;21592;-62
2022/06/26 08:20:18;;;;;;;2.70;1.85;;;;;;;29.93;35.82;99887.00;1751099;80;21522;-61
2022/06/26 08:22:46;;;;;;;4.72;2.02;;;;;;;30.14;35.12;99886.77;1756196;80;21811;-61
2022/06/26 08:25:13;;;;;;;7.53;1.60;;;;;;;30.24;34.77;99883.28;1760900;80;21032;-63
2022/06/26 08:27:40;;;;;;;7.80;2.15;;;;;;;30.23;34.66;99882.45;1759545;80;21550;-62
2022/06/26 08:30:09;;;;;;;3.80;1.70;;;;;;;30.27;35.09;99877.47;1764973;80;21621;-62
2022/06/26 08:32:37;;;;;;;4.50;1.98;;;;;;;30.37;34.78;99879.95;1764426;80;21431;-62
2022/06/26 08:35:08;;;;;;;;;;;;;;;30.41;34.87;99884.79;1762289;80;21963;-62
2022/06/26 08:37:34;;;;;;;4.97;2.10;;;;;;;30.39;34.70;99878.72;1758027;80;20208;-62
2022/06/26 08:40:01;;;;;;;3.87;2.10;;;;;;;30.32;35.07;99875.56;1761352;80;21561;-61
2022/06/26 08:42:28;;;;;;;4.87;2.00;;;;;;;30.21;35.54;99870.09;1755468;80;21515;-62
2022/06/26 08:44:57;;;;;;;4.45;2.00;;;;;;;30.13;35.47;99872.39;1755484;80;20961;-62
2022/06/26 08:47:25;;;;;;;6.42;1.72;;;;;;;30.09;35.60;99877.34;1767913;80;21903;-63
2022/06/26 08:49:53;;;;;;;6.20;1.90;;;;;;;30.06;35.93;99872.80;1762325;80;21525;-63
2022/06/26 08:52:21;;;;;;;3.40;2.60;;;;;;;30.11;35.53;99873.09;1755743;80;21450;-63
2022/06/26 08:54:48;;;;;;;3.50;2.05;;;;;;;30.24;35.16;99875.15;1752941;80;21009;-63
2022/06/26 08:57:15;;;;;;;3.35;2.10;;;;;;;30.34;34.73;99874.89;1739401;80;21609;-63
2022/06/26 08:59:42;;;;;;;5.28;2.00;;;;;;;30.47;35.31;99865.56;1749867;80;21862;-63
2022/06/26 09:02:09;;;;;;;3.22;1.95;;;;;;;30.69;34.94;99871.05;1759004;80;21609;-63
2022/06/26 09:04:37;;;;;;;2.80;1.90;;;;;;;30.72;34.88;99871.48;1750314;80;21416;-63
2022/06/26 09:07:07;;;;;;;2.17;2.00;;;;;;;30.66;34.84;99874.97;1743626;80;21930;-62
2022/06/26 09:09:39;;;;;;;3.17;2.33;;;;;;;30.60;35.12;99881.16;1746850;80;21566;-62
2022/06/26 09:12:07;;;;;;;3.98;1.90;;;;;;;30.56;35.13;99882.05;1736594;80;21570;-62
2022/06/26 09:14:33;;;;;;;2.50;2.30;;;;;;;30.58;35.12;99872.37;1750465;80;21523;-62
2022/06/26 09:17:00;;;;;;;6.87;2.43;;;;;;;30.71;35.41;99868.98;1743350;80;21057;-63
2022/06/26 09:19:33;;;;;;;6.12;2.00;;;;;;;30.88;35.17;99869.59;1755909;80;21432;-61
2022/06/26 09:22:13;;;;;;;3.15;2.15;;;;;;;31.01;34.21;99865.16;1754217;80;21994;-61
2022/06/26 09:24:40;;;;;;;2.80;2.08;;;;;;;31.14;34.40;99866.34;1752167;80;21925;-62
2022/06/26 09:27:10;;;;;;;2.47;2.00;;;;;;;31.30;34.54;99866.57;1749327;80;21527;-65
2022/06/26 09:29:39;;;;;;;2.58;2.10;;;;;;;31.40;34.49;99858.42;1755736;80;21546;-62
2022/06/26 09:32:13;;;;;;;2.20;2.00;;;;;;;31.39;34.12;99862.16;1754184;80;21483;-60
2022/06/26 09:34:53;;;;;;;6.85;2.25;;;;;;;31.31;34.24;99859.59;1750138;80;21194;-60
2022/06/26 09:37:20;;;;;;;2.62;2.05;;;;;;;31.14;33.80;99860.91;1751426;80;21428;-60
2022/06/26 09:39:47;;;;;;;2.58;2.17;;;;;;;31.00;34.01;99866.70;1749381;80;21652;-60
2022/06/26 09:42:19;;;;;;;2.43;2.20;;;;;;;30.90;33.92;99868.88;1744887;80;21463;-58
2022/06/26 09:44:49;;;;;;;3.75;2.05;;;;;;;30.88;33.61;99868.23;1737051;80;21014;-58
2022/06/26 09:47:29;;;;;;;2.42;2.22;;;;;;;30.94;33.38;99868.84;1738843;80;21538;-58
2022/06/26 09:50:00;;;;;;;2.47;2.10;;;;;;;31.07;33.34;99868.14;1752304;80;21790;-60
2022/06/26 09:52:29;;;;;;;2.60;2.40;;;;;;;31.16;33.31;99865.63;1752736;80;21551;-59
2022/06/26 09:54:57;;;;;;;6.58;2.30;;;;;;;31.18;33.61;99869.81;1739487;80;21443;-61
2022/06/26 09:57:26;;;;;;;4.28;2.00;;;;;;;31.24;33.71;99869.55;1742986;80;21448;-59
2022/06/26 09:59:54;;;;;;;2.52;2.33;;;;;;;31.32;33.74;99872.64;1751729;80;21522;-59
2022/06/26 10:08:06;;;;;;;3.98;1.90;;;;;;;31.66;33.14;99867.00;1750414;80;21058;-58
2022/06/26 10:10:34;;;;;;;3.70;1.90;;;;;;;31.69;33.30;99863.89;1753498;80;21531;-59
2022/06/26 10:13:06;;;;;;;8.80;2.90;;;;;;;31.66;33.43;99860.20;1755032;80;21026;-59
2022/06/26 10:15:47;;;;;;;6.28;2.40;;;;;;;31.63;34.89;99862.28;1740014;80;21736;-59
2022/06/26 10:19:06;;;;;;;10.38;2.60;;;;;;;31.57;34.27;99860.86;1708275;82;21476;-58
2022/06/26 10:21:37;;;;;;;3.15;2.12;;;;;;;31.53;33.89;99858.22;1755843;80;21459;-60
2022/06/26 10:24:05;;;;;;;7.67;2.40;;;;;;;31.44;34.09;99862.95;1739255;80;21462;-59
2022/06/26 10:26:32;;;;;;;2.40;2.20;;;;;;;31.38;33.62;99867.78;1748746;80;21451;-60
2022/06/26 10:29:09;;;;;;;2.25;2.05;;;;;;;31.29;33.88;99871.17;1742540;80;22105;-63
2022/06/26 10:31:51;;;;;;;5.10;2.55;;;;;;;31.20;33.86;99875.05;1757231;80;28761;-60
2022/06/26 10:34:19;;;;;;;3.92;2.45;;;;;;;31.12;33.70;99868.38;1749289;80;20935;-61
2022/06/26 10:37:15;;;;;;;7.33;2.50;;;;;;;31.07;34.05;99864.90;1754868;80;21597;-60
2022/06/26 10:39:49;;;;;;;4.80;2.58;;;;;;;31.13;34.15;99870.07;1753201;80;21506;-62
2022/06/26 10:45:33;;;;;;;4.45;2.47;;;;;;;31.56;34.06;99865.98;1745608;80;21518;-60
2022/06/26 10:48:01;;;;;;;2.70;2.50;;;;;;;31.71;33.07;99868.08;1740865;80;21565;-61
2022/06/26 10:50:38;;;;;;;5.08;2.80;;;;;;;31.71;32.91;99873.52;1758584;80;21610;-62
2022/06/26 10:53:26;;;;;;;4.78;3.10;;;;;;;31.72;32.87;99867.06;1751633;80;21423;-62
2022/06/26 10:55:57;;;;;;;4.00;2.30;;;;;;;31.69;32.96;99874.77;1752382;80;21919;-60
2022/06/26 10:58:29;;;;;;;2.92;2.37;;;;;;;31.59;32.99;99876.45;1741937;80;21537;-60
2022/06/26 11:01:02;;;;;;;5.60;2.70;;;;;;;31.49;32.91;99875.43;1760179;80;21541;-59
2022/06/26 11:03:30;;;;;;;3.45;3.08;;;;;;;31.27;32.85;99879.17;1745674;80;21645;-61
2022/06/26 11:06:14;;;;;;;2.10;2.00;;;;;;;31.12;32.88;99876.03;1749611;80;21545;-59
2022/06/26 11:08:47;;;;;;;2.95;2.08;;;;;;;31.03;33.22;99880.73;1749352;80;21818;-60
2022/06/26 11:11:25;;;;;;;2.70;2.30;;;;;;;31.13;33.93;99870.07;1758798;80;20958;-59
2022/06/26 11:13:55;;;;;;;2.30;1.98;;;;;;;31.19;33.78;99877.44;1737897;80;21541;-59
2022/06/26 11:16:43;;;;;;;2.12;1.87;;;;;;;31.23;33.33;99871.93;1747041;80;21491;-59
2022/06/26 11:19:30;;;;;;;4.58;2.02;;;;;;;31.31;33.58;99874.53;1749854;80;21527;-60
2022/06/26 11:22:10;;;;;;;3.50;2.25;;;;;;;31.43;33.88;99857.17;1749036;80;21809;-59
2022/06/26 11:24:52;;;;;;;3.30;1.95;;;;;;;31.58;33.61;99852.52;1749331;80;21494;-60
2022/06/26 11:27:24;;;;;;;3.58;2.10;;;;;;;31.71;33.04;99848.23;1741739;80;21590;-60
2022/06/26 11:29:52;;;;;;;2.20;1.70;;;;;;;31.79;33.27;99854.86;1743329;80;21550;-59
2022/06/26 11:32:22;;;;;;;6.47;1.82;;;;;;;31.84;32.81;99848.84;1753332;80;21546;-58
2022/06/26 11:34:55;;;;;;;2.58;2.00;;;;;;;31.80;33.00;99849.75;1747580;80;21940;-59
2022/06/26 11:37:36;;;;;;;3.12;2.10;;;;;;;31.80;32.62;99846.51;1749518;80;21456;-57
2022/06/26 11:40:14;;;;;;;6.08;2.10;;;;;;;31.78;33.12;99862.18;1746420;80;21000;-56
2022/06/26 11:42:42;;;;;;;1.75;1.60;;;;;;;31.74;33.34;99852.75;1747142;80;21475;-61
2022/06/26 11:45:09;;;;;;;6.70;2.00;;;;;;;31.76;33.27;99853.39;1754044;80;21533;-60
2022/06/26 11:47:37;;;;;;;4.35;1.60;;;;;;;31.90;32.80;99855.66;1753820;80;21801;-59
2022/06/26 11:50:07;;;;;;;5.45;1.80;;;;;;;32.03;32.44;99851.39;1738800;80;21551;-60
2022/06/26 11:52:33;;;;;;;2.72;1.47;;;;;;;32.12;32.52;99845.58;1744323;80;21451;-60
2022/06/26 11:55:01;;;;;;;1.67;1.57;;;;;;;32.24;32.50;99845.01;1750935;80;21600;-61
2022/06/26 11:57:27;;;;;;;2.40;1.77;;;;;;;32.35;32.19;99839.81;1760797;80;21559;-60
2022/06/26 11:59:54;;;;;;;1.70;1.60;;;;;;;32.40;32.12;99840.58;1751632;80;21851;-61
2022/06/26 12:02:23;;;;;;;1.77;1.62;;;;;;;32.46;31.71;99845.20;1747372;80;21558;-60